createdAt,value
2018-08-16T00:00:09.072Z,19.80
2018-08-16T00:02:36.667Z,19.80
2018-08-16T00:05:04.577Z,19.70
2018-08-16T00:07:32.136Z,19.70
2018-08-16T00:09:59.696Z,19.70
2018-08-16T00:12:27.287Z,19.60
2018-08-16T00:14:54.831Z,19.60
2018-08-16T00:17:22.407Z,19.60
2018-08-16T00:19:49.913Z,19.50
2018-08-16T00:22:17.418Z,19.50
2018-08-16T00:24:44.944Z,19.50
2018-08-16T00:27:12.453Z,19.50
2018-08-16T00:29:39.981Z,19.40
2018-08-16T00:32:07.600Z,19.40
2018-08-16T00:34:35.099Z,19.40
2018-08-16T00:37:02.643Z,19.40
2018-08-16T00:39:30.161Z,19.30
2018-08-16T00:41:57.684Z,19.30
2018-08-16T00:44:25.206Z,19.30
2018-08-16T00:46:52.797Z,19.30
2018-08-16T00:49:20.322Z,19.20
2018-08-16T00:51:47.869Z,19.20
2018-08-16T00:54:15.386Z,19.20
2018-08-16T00:56:42.884Z,19.20
2018-08-16T00:59:10.374Z,19.10
2018-08-16T01:01:37.883Z,19.10
2018-08-16T01:04:05.886Z,19.10
2018-08-16T01:06:33.492Z,19.00
2018-08-16T01:09:01.074Z,19.00
2018-08-16T01:11:28.583Z,19.00
2018-08-16T01:13:56.130Z,19.00
2018-08-16T01:16:23.709Z,19.00
2018-08-16T01:18:51.353Z,18.90
2018-08-16T01:21:18.914Z,18.90
2018-08-16T01:23:46.491Z,18.90
2018-08-16T01:26:14.032Z,18.90
2018-08-16T01:28:41.647Z,18.90
2018-08-16T01:31:09.206Z,18.80
2018-08-16T01:33:36.763Z,18.80
2018-08-16T01:36:04.353Z,18.80
2018-08-16T01:38:31.932Z,18.80
2018-08-16T01:40:59.472Z,18.70
2018-08-16T01:43:27.015Z,18.70
2018-08-16T01:45:54.560Z,18.70
2018-08-16T01:48:22.070Z,18.70
2018-08-16T01:50:49.589Z,18.70
2018-08-16T01:53:17.140Z,18.70
2018-08-16T01:55:44.670Z,18.70
2018-08-16T01:58:12.220Z,18.60
2018-08-16T02:00:39.758Z,18.60
2018-08-16T02:03:07.282Z,18.60
2018-08-16T02:05:34.842Z,18.60
2018-08-16T02:08:02.449Z,18.60
2018-08-16T02:10:30.016Z,18.60
2018-08-16T02:12:57.571Z,18.60
2018-08-16T02:15:25.070Z,18.60
2018-08-16T02:17:52.638Z,18.60
2018-08-16T02:20:20.166Z,18.50
2018-08-16T02:22:47.676Z,18.50
2018-08-16T02:25:15.192Z,18.50
2018-08-16T02:27:42.798Z,18.50
2018-08-16T02:30:10.586Z,18.50
2018-08-16T02:32:38.748Z,18.50
2018-08-16T02:35:06.385Z,18.40
2018-08-16T02:37:33.986Z,18.40
2018-08-16T02:40:01.602Z,18.40
2018-08-16T02:42:29.085Z,18.40
2018-08-16T02:44:56.598Z,18.40
2018-08-16T02:47:24.176Z,18.40
2018-08-16T02:49:51.678Z,18.40
2018-08-16T02:52:19.255Z,18.40
2018-08-16T02:54:46.786Z,18.30
2018-08-16T02:57:14.307Z,18.30
2018-08-16T02:59:41.848Z,18.30
2018-08-16T03:02:09.383Z,18.30
2018-08-16T03:04:36.956Z,18.30
2018-08-16T03:07:04.547Z,18.30
2018-08-16T03:09:32.283Z,18.30
2018-08-16T03:11:59.822Z,18.30
2018-08-16T03:14:27.336Z,18.20
2018-08-16T03:16:54.958Z,18.20
2018-08-16T03:19:22.441Z,18.20
2018-08-16T03:21:49.995Z,18.20
2018-08-16T03:24:17.544Z,18.20
2018-08-16T03:26:45.387Z,18.10
2018-08-16T03:29:12.924Z,18.10
2018-08-16T03:31:40.456Z,18.10
2018-08-16T03:34:08.110Z,18.10
2018-08-16T03:36:35.639Z,18.00
2018-08-16T03:39:04.252Z,18.00
2018-08-16T03:41:31.767Z,18.00
2018-08-16T03:43:59.295Z,18.00
2018-08-16T03:46:26.833Z,18.00
2018-08-16T03:48:54.413Z,18.00
2018-08-16T03:51:21.930Z,17.90
2018-08-16T03:53:49.461Z,17.90
2018-08-16T03:56:17.074Z,17.90
2018-08-16T03:58:44.545Z,17.90
2018-08-16T04:01:12.144Z,17.90
2018-08-16T04:03:39.787Z,17.90
2018-08-16T04:06:07.487Z,17.80
2018-08-16T04:08:35.044Z,17.80
2018-08-16T04:11:02.599Z,17.80
2018-08-16T04:13:30.117Z,17.80
2018-08-16T04:15:57.641Z,17.80
2018-08-16T04:18:25.182Z,17.80
2018-08-16T04:20:52.701Z,17.80
2018-08-16T04:23:20.229Z,17.70
2018-08-16T04:25:47.729Z,17.80
2018-08-16T04:28:15.261Z,17.70
2018-08-16T04:30:42.769Z,17.80
2018-08-16T04:33:10.273Z,17.80
2018-08-16T04:35:37.880Z,17.70
2018-08-16T04:38:05.536Z,17.70
2018-08-16T04:40:33.042Z,17.70
2018-08-16T04:43:00.552Z,17.70
2018-08-16T04:45:28.099Z,17.70
2018-08-16T04:47:55.645Z,17.80
2018-08-16T04:50:23.206Z,17.80
2018-08-16T04:52:50.797Z,17.80
2018-08-16T04:55:18.395Z,17.80
2018-08-16T04:57:46.086Z,17.80
2018-08-16T05:00:13.711Z,17.80
2018-08-16T05:02:41.303Z,17.80
2018-08-16T05:05:09.217Z,17.80
2018-08-16T05:07:37.019Z,17.80
2018-08-16T05:10:06.120Z,17.80
2018-08-16T05:12:33.725Z,17.80
2018-08-16T05:15:01.387Z,17.90
2018-08-16T05:17:29.051Z,17.90
2018-08-16T05:19:56.605Z,17.90
2018-08-16T05:22:24.270Z,18.00
2018-08-16T05:24:51.926Z,18.00
2018-08-16T05:27:19.627Z,18.10
2018-08-16T05:29:47.306Z,18.10
2018-08-16T05:32:14.901Z,18.10
2018-08-16T05:34:42.451Z,18.20
2018-08-16T05:37:10.035Z,18.30
2018-08-16T05:39:37.592Z,18.30
2018-08-16T05:42:05.317Z,18.40
2018-08-16T05:44:32.841Z,18.40
2018-08-16T05:47:00.438Z,18.50
2018-08-16T05:49:28.009Z,18.50
2018-08-16T05:51:55.577Z,18.60
2018-08-16T05:54:23.174Z,18.60
2018-08-16T05:56:50.747Z,18.60
2018-08-16T05:59:18.347Z,18.70
2018-08-16T06:01:45.940Z,18.80
2018-08-16T06:04:13.476Z,18.80
2018-08-16T06:06:41.023Z,18.90
2018-08-16T06:09:09.804Z,18.90
2018-08-16T06:11:37.578Z,19.00
2018-08-16T06:14:06.996Z,19.00
2018-08-16T06:16:34.859Z,19.10
2018-08-16T06:19:02.535Z,19.20
2018-08-16T06:21:30.183Z,19.20
2018-08-16T06:23:57.780Z,19.30
2018-08-16T06:26:25.402Z,19.30
2018-08-16T06:28:52.784Z,19.40
2018-08-16T06:31:20.366Z,19.40
2018-08-16T06:33:48.057Z,19.50
2018-08-16T06:36:15.819Z,19.60
2018-08-16T06:38:43.526Z,19.70
2018-08-16T06:41:11.076Z,19.70
2018-08-16T06:43:38.767Z,19.80
2018-08-16T06:46:06.419Z,19.90
2018-08-16T06:48:34.104Z,20.00
2018-08-16T06:51:01.709Z,20.10
2018-08-16T06:53:29.552Z,20.20
2018-08-16T06:55:57.189Z,20.20
2018-08-16T06:58:24.847Z,20.30
2018-08-16T07:00:52.396Z,20.40
2018-08-16T07:03:20.030Z,20.50
2018-08-16T07:05:47.625Z,20.50
2018-08-16T07:08:15.226Z,20.60
2018-08-16T07:10:42.907Z,20.60
2018-08-16T07:13:10.457Z,20.70
2018-08-16T07:15:38.090Z,20.80
2018-08-16T07:18:05.787Z,20.90
2018-08-16T07:20:33.276Z,20.90
2018-08-16T07:23:01.014Z,21.00
2018-08-16T07:25:28.570Z,21.10
2018-08-16T07:27:56.242Z,21.10
2018-08-16T07:30:23.826Z,21.20
2018-08-16T07:32:51.352Z,21.30
2018-08-16T07:35:18.977Z,21.30
2018-08-16T07:37:46.626Z,21.40
2018-08-16T07:40:14.180Z,21.50
2018-08-16T07:42:41.785Z,21.50
2018-08-16T07:45:10.285Z,21.60
2018-08-16T07:47:38.213Z,21.60
2018-08-16T07:50:07.117Z,21.70
2018-08-16T07:52:34.720Z,21.80
2018-08-16T07:55:02.355Z,21.80
2018-08-16T07:57:30.000Z,21.90
2018-08-16T07:59:57.594Z,22.00
2018-08-16T08:02:25.243Z,22.00
2018-08-16T08:04:52.892Z,22.10
2018-08-16T08:07:20.427Z,22.20
2018-08-16T08:09:48.089Z,22.30
2018-08-16T08:12:15.634Z,22.40
2018-08-16T08:14:43.278Z,22.40
2018-08-16T08:17:10.926Z,22.50
2018-08-16T08:19:38.629Z,22.60
2018-08-16T08:22:06.270Z,22.70
2018-08-16T08:24:34.074Z,22.80
2018-08-16T08:27:01.743Z,22.90
2018-08-16T08:29:29.279Z,22.90
2018-08-16T08:31:56.819Z,23.00
2018-08-16T08:34:24.404Z,23.10
2018-08-16T08:37:03.238Z,23.10
2018-08-16T08:39:31.147Z,23.20
2018-08-16T08:41:58.718Z,23.30
2018-08-16T08:44:27.425Z,23.40
2018-08-16T08:46:54.998Z,23.50
2018-08-16T08:49:22.681Z,23.70
2018-08-16T08:51:51.885Z,23.80
2018-08-16T08:54:41.914Z,23.80
2018-08-16T08:57:20.648Z,24.00
2018-08-16T08:59:48.298Z,24.00
2018-08-16T09:02:15.944Z,24.20
2018-08-16T09:04:43.643Z,24.30
2018-08-16T09:07:12.972Z,24.40
2018-08-16T09:11:54.429Z,24.50
2018-08-16T09:14:33.239Z,24.60
2018-08-16T09:17:00.847Z,24.60
2018-08-16T09:19:28.612Z,24.70
2018-08-16T09:21:56.343Z,24.90
2018-08-16T09:24:24.065Z,25.00
2018-08-16T09:26:51.757Z,25.20
2018-08-16T09:30:35.393Z,25.30
2018-08-16T09:33:14.261Z,25.40
2018-08-16T09:35:42.052Z,25.50
2018-08-16T09:38:09.762Z,25.60
2018-08-16T09:40:37.541Z,25.70
2018-08-16T09:43:05.280Z,25.80
2018-08-16T09:45:51.041Z,25.90
2018-08-16T09:48:30.068Z,26.00
2018-08-16T09:50:57.693Z,26.10
2018-08-16T09:53:25.336Z,26.10
2018-08-16T09:55:52.967Z,26.30
2018-08-16T09:58:20.776Z,26.40
2018-08-16T10:06:02.920Z,26.70
2018-08-16T10:08:30.564Z,26.60
2018-08-16T10:10:58.277Z,26.80
2018-08-16T10:13:26.085Z,27.00
2018-08-16T10:15:53.895Z,27.20
2018-08-16T10:18:22.008Z,27.40
2018-08-16T10:20:49.738Z,27.60
2018-08-16T10:23:17.437Z,27.60
2018-08-16T10:25:45.138Z,27.60
2018-08-16T10:28:12.878Z,27.80
2018-08-16T10:30:40.720Z,27.90
2018-08-16T10:33:08.443Z,28.10
2018-08-16T10:35:36.390Z,28.20
2018-08-16T10:38:04.426Z,28.40
2018-08-16T10:40:32.073Z,28.70
2018-08-16T10:42:59.748Z,28.80
2018-08-16T10:45:27.360Z,29.10
2018-08-16T10:47:54.968Z,29.40
2018-08-16T10:50:22.612Z,29.70
2018-08-16T10:52:50.292Z,30.20
2018-08-16T10:55:18.077Z,31.90
2018-08-16T10:57:45.731Z,34.70
2018-08-16T11:00:13.451Z,36.30
2018-08-16T11:02:41.158Z,38.10
2018-08-16T11:05:08.887Z,40.50
2018-08-16T11:07:36.621Z,43.00
2018-08-16T11:10:04.422Z,45.20
2018-08-16T11:12:32.069Z,47.00
2018-08-16T11:14:59.706Z,48.50
2018-08-16T11:17:27.369Z,49.80
2018-08-16T11:19:54.991Z,50.70
2018-08-16T11:22:22.585Z,51.60
2018-08-16T11:24:50.210Z,52.40
2018-08-16T11:27:17.908Z,53.00
2018-08-16T11:29:45.591Z,53.10
2018-08-16T11:32:13.300Z,53.20
2018-08-16T11:34:40.903Z,53.50
2018-08-16T11:37:08.479Z,54.00
2018-08-16T11:39:36.109Z,54.40
2018-08-16T11:42:03.713Z,54.80
2018-08-16T11:44:31.433Z,55.10
2018-08-16T11:46:59.039Z,55.50
2018-08-16T11:49:26.552Z,55.80
2018-08-16T11:51:54.151Z,56.00
2018-08-16T11:54:21.780Z,56.20
2018-08-16T11:56:49.390Z,56.50
2018-08-16T11:59:16.996Z,56.70
2018-08-16T12:01:44.577Z,56.80
2018-08-16T12:04:12.144Z,56.70
2018-08-16T12:06:39.728Z,56.00
2018-08-16T12:09:08.291Z,54.00
2018-08-16T12:11:35.871Z,52.10
2018-08-16T12:14:03.531Z,50.70
2018-08-16T12:16:31.135Z,51.50
2018-08-16T12:18:58.666Z,52.80
2018-08-16T12:21:26.201Z,53.90
2018-08-16T12:23:53.811Z,54.50
2018-08-16T12:26:21.391Z,54.90
2018-08-16T12:28:49.031Z,55.50
2018-08-16T12:31:16.614Z,55.70
2018-08-16T12:33:44.166Z,55.80
2018-08-16T12:36:11.819Z,55.90
2018-08-16T12:38:39.364Z,55.90
2018-08-16T12:41:07.173Z,55.80
2018-08-16T12:43:36.071Z,55.60
2018-08-16T12:46:03.713Z,55.60
2018-08-16T12:48:31.299Z,55.40
2018-08-16T12:50:58.930Z,55.10
2018-08-16T12:53:26.522Z,54.80
2018-08-16T12:55:54.217Z,54.70
2018-08-16T12:58:21.890Z,54.40
2018-08-16T13:00:49.454Z,54.00
2018-08-16T13:03:17.112Z,53.40
2018-08-16T13:05:44.722Z,53.00
2018-08-16T13:08:12.758Z,52.50
2018-08-16T13:10:40.552Z,52.30
2018-08-16T13:13:08.221Z,52.10
2018-08-16T13:15:35.807Z,51.80
2018-08-16T13:18:03.466Z,51.40
2018-08-16T13:20:31.072Z,50.90
2018-08-16T13:22:58.671Z,50.30
2018-08-16T13:25:26.324Z,49.70
2018-08-16T13:27:53.965Z,48.80
2018-08-16T13:30:21.612Z,48.30
2018-08-16T13:32:49.196Z,48.00
2018-08-16T13:35:16.727Z,47.60
2018-08-16T13:37:44.393Z,47.00
2018-08-16T13:40:11.948Z,46.50
2018-08-16T13:42:39.575Z,46.00
2018-08-16T13:45:07.181Z,45.60
2018-08-16T13:47:34.736Z,44.90
2018-08-16T13:50:02.395Z,43.90
2018-08-16T13:52:30.029Z,42.90
2018-08-16T13:54:57.687Z,41.90
2018-08-16T13:57:25.210Z,41.10
2018-08-16T13:59:52.806Z,40.30
2018-08-16T14:02:20.408Z,39.60
2018-08-16T14:04:47.980Z,38.90
2018-08-16T14:07:15.576Z,38.20
2018-08-16T14:09:43.252Z,37.60
2018-08-16T14:12:10.858Z,37.20
2018-08-16T14:14:38.428Z,37.00
2018-08-16T14:17:06.271Z,36.60
2018-08-16T14:19:33.945Z,36.30
2018-08-16T14:22:01.571Z,36.00
2018-08-16T14:24:29.166Z,35.80
2018-08-16T14:26:56.740Z,35.60
2018-08-16T14:29:24.399Z,35.50
2018-08-16T14:31:51.998Z,35.40
2018-08-16T14:34:19.548Z,35.40
2018-08-16T14:36:47.128Z,35.30
2018-08-16T14:39:14.741Z,35.10
2018-08-16T14:41:42.320Z,35.10
2018-08-16T14:44:09.944Z,34.90
2018-08-16T14:46:37.552Z,34.80
2018-08-16T14:49:05.163Z,34.70
2018-08-16T14:51:32.835Z,34.60
2018-08-16T14:54:00.391Z,34.40
2018-08-16T14:56:27.974Z,34.20
2018-08-16T14:58:55.628Z,34.10
2018-08-16T15:01:23.195Z,34.00
2018-08-16T15:03:50.817Z,34.00
2018-08-16T15:06:18.375Z,33.70
2018-08-16T15:08:45.965Z,33.50
2018-08-16T15:11:13.553Z,33.50
2018-08-16T15:13:41.204Z,33.70
2018-08-16T15:16:08.772Z,33.60
2018-08-16T15:18:36.308Z,33.50
2018-08-16T15:21:03.902Z,33.50
2018-08-16T15:23:31.547Z,33.40
2018-08-16T15:25:59.125Z,33.30
2018-08-16T15:28:26.770Z,33.20
2018-08-16T15:30:54.406Z,33.20
2018-08-16T15:33:22.004Z,33.10
2018-08-16T15:35:49.611Z,33.10
2018-08-16T15:38:17.218Z,33.10
2018-08-16T15:40:44.853Z,33.10
2018-08-16T15:43:12.381Z,33.00
2018-08-16T15:45:39.984Z,33.00
2018-08-16T15:48:12.611Z,32.80
2018-08-16T15:50:40.278Z,32.80
2018-08-16T15:53:07.900Z,32.70
2018-08-16T15:55:35.660Z,32.70
2018-08-16T15:58:03.294Z,32.60
2018-08-16T16:00:30.857Z,32.60
2018-08-16T16:02:58.458Z,32.60
2018-08-16T16:05:26.074Z,32.50
2018-08-16T16:07:53.746Z,32.50
2018-08-16T16:10:21.368Z,32.40
2018-08-16T16:12:48.921Z,32.40
2018-08-16T16:15:16.589Z,32.30
2018-08-16T16:17:44.155Z,32.20
2018-08-16T16:20:11.741Z,32.10
2018-08-16T16:22:39.289Z,32.00
2018-08-16T16:25:07.305Z,32.00
2018-08-16T16:27:35.300Z,31.90
2018-08-16T16:30:02.997Z,31.80
2018-08-16T16:32:30.588Z,31.80
2018-08-16T16:34:58.139Z,31.70
2018-08-16T16:37:25.728Z,31.70
2018-08-16T16:39:53.303Z,31.70
2018-08-16T16:42:22.343Z,31.60
2018-08-16T16:44:49.991Z,31.60
2018-08-16T16:47:17.539Z,31.50
2018-08-16T16:49:45.182Z,31.40
2018-08-16T16:52:12.855Z,31.30
2018-08-16T16:54:40.415Z,31.20
2018-08-16T16:57:07.970Z,31.10
2018-08-16T16:59:35.516Z,31.00
2018-08-16T17:02:03.232Z,30.90
2018-08-16T17:04:30.850Z,30.80
2018-08-16T17:06:58.426Z,30.70
2018-08-16T17:09:26.093Z,30.60
2018-08-16T17:11:53.745Z,30.60
2018-08-16T17:14:21.294Z,30.50
2018-08-16T17:16:48.823Z,30.40
2018-08-16T17:19:16.331Z,30.30
2018-08-16T17:21:43.956Z,30.20
2018-08-16T17:24:11.577Z,30.20
2018-08-16T17:26:39.173Z,30.10
2018-08-16T17:29:06.871Z,30.00
2018-08-16T17:31:34.469Z,29.90
2018-08-16T17:34:02.081Z,29.80
2018-08-16T17:36:29.686Z,29.70
2018-08-16T17:38:57.260Z,29.60
2018-08-16T17:41:24.852Z,29.50
2018-08-16T17:43:52.443Z,29.50
2018-08-16T17:46:20.039Z,29.40
2018-08-16T17:48:52.170Z,29.20
2018-08-16T17:51:19.746Z,29.20
2018-08-16T17:53:47.355Z,29.00
2018-08-16T17:56:14.911Z,28.90
2018-08-16T17:58:42.448Z,28.80
2018-08-16T18:01:09.992Z,28.70
2018-08-16T18:03:37.616Z,28.60
2018-08-16T18:06:05.314Z,28.60
2018-08-16T18:08:32.959Z,28.50
2018-08-16T18:11:00.509Z,28.40
2018-08-16T18:13:28.193Z,28.30
2018-08-16T18:15:55.869Z,28.20
2018-08-16T18:18:23.595Z,28.10
2018-08-16T18:20:51.281Z,28.00
2018-08-16T18:23:18.941Z,27.90
2018-08-16T18:25:47.279Z,27.80
2018-08-16T18:28:15.037Z,27.70
2018-08-16T18:30:42.828Z,27.60
2018-08-16T18:33:10.470Z,27.50
2018-08-16T18:35:38.115Z,27.50
2018-08-16T18:38:05.961Z,27.40
2018-08-16T18:40:33.587Z,27.30
2018-08-16T18:43:01.357Z,27.20
2018-08-16T18:45:28.947Z,27.10
2018-08-16T18:47:56.599Z,27.00
2018-08-16T18:50:24.279Z,26.90
2018-08-16T18:52:51.940Z,26.80
2018-08-16T18:55:19.578Z,26.70
2018-08-16T18:57:47.244Z,26.60
2018-08-16T19:00:14.954Z,26.60
2018-08-16T19:02:42.506Z,26.50
2018-08-16T19:05:10.260Z,26.40
2018-08-16T19:07:37.919Z,26.30
2018-08-16T19:10:06.783Z,26.30
2018-08-16T19:12:34.532Z,26.20
2018-08-16T19:15:02.259Z,26.10
2018-08-16T19:17:30.101Z,26.00
2018-08-16T19:19:57.742Z,26.00
2018-08-16T19:22:25.398Z,25.90
2018-08-16T19:24:53.106Z,25.90
2018-08-16T19:27:20.714Z,25.80
2018-08-16T19:29:48.422Z,25.70
2018-08-16T19:32:16.073Z,25.70
2018-08-16T19:34:43.828Z,25.60
2018-08-16T19:37:11.514Z,25.50
2018-08-16T19:39:39.177Z,25.50
2018-08-16T19:42:06.887Z,25.40
2018-08-16T19:44:34.577Z,25.30
2018-08-16T19:47:02.297Z,25.30
2018-08-16T19:49:30.925Z,25.20
2018-08-16T19:51:58.838Z,25.10
2018-08-16T19:54:26.538Z,25.10
2018-08-16T19:56:54.207Z,25.00
2018-08-16T19:59:21.881Z,25.00
2018-08-16T20:01:49.593Z,24.90
2018-08-16T20:04:17.283Z,24.90
2018-08-16T20:06:44.896Z,24.80
2018-08-16T20:09:12.606Z,24.80
2018-08-16T20:11:40.356Z,24.70
2018-08-16T20:14:08.226Z,24.70
2018-08-16T20:16:36.065Z,24.60
2018-08-16T20:19:03.849Z,24.60
2018-08-16T20:21:31.493Z,24.50
2018-08-16T20:23:59.554Z,24.50
2018-08-16T20:26:27.246Z,24.40
2018-08-16T20:28:54.985Z,24.30
2018-08-16T20:31:22.546Z,24.30
2018-08-16T20:33:50.214Z,24.20
2018-08-16T20:36:17.820Z,24.20
2018-08-16T20:38:45.427Z,24.10
2018-08-16T20:41:13.076Z,24.10
2018-08-16T20:43:40.654Z,24.10
2018-08-16T20:46:08.304Z,24.00
2018-08-16T20:48:35.988Z,24.00
2018-08-16T20:51:03.615Z,23.90
2018-08-16T20:53:32.119Z,23.90
2018-08-16T20:55:59.763Z,23.80
2018-08-16T20:58:27.292Z,23.80
2018-08-16T21:00:54.853Z,23.70
2018-08-16T21:03:22.479Z,23.70
2018-08-16T21:05:50.069Z,23.70
2018-08-16T21:08:17.683Z,23.70
2018-08-16T21:10:45.266Z,23.60
2018-08-16T21:13:12.870Z,23.60
2018-08-16T21:15:40.485Z,23.50
2018-08-16T21:18:08.157Z,23.50
2018-08-16T21:20:35.758Z,23.40
2018-08-16T21:23:03.355Z,23.40
2018-08-16T21:25:30.932Z,23.40
2018-08-16T21:27:58.609Z,23.30
2018-08-16T21:30:26.149Z,23.30
2018-08-16T21:32:53.769Z,23.20
2018-08-16T21:35:21.356Z,23.20
2018-08-16T21:37:48.929Z,23.20
2018-08-16T21:40:16.459Z,23.10
2018-08-16T21:42:44.084Z,23.10
2018-08-16T21:45:11.775Z,23.10
2018-08-16T21:47:39.341Z,23.00
2018-08-16T21:50:07.348Z,23.00
2018-08-16T21:52:34.931Z,23.00
2018-08-16T21:55:02.588Z,22.90
2018-08-16T21:57:30.127Z,22.90
2018-08-16T21:59:57.680Z,22.80
2018-08-16T22:02:25.271Z,22.80
2018-08-16T22:04:52.880Z,22.80
2018-08-16T22:08:08.360Z,22.70
2018-08-16T22:10:36.030Z,22.70
2018-08-16T22:13:03.745Z,22.60
2018-08-16T22:15:31.341Z,22.60
2018-08-16T22:17:58.934Z,22.50
2018-08-16T22:20:26.581Z,22.50
2018-08-16T22:22:54.143Z,22.40
2018-08-16T22:25:21.707Z,22.40
2018-08-16T22:27:49.245Z,22.40
2018-08-16T22:30:16.848Z,22.40
2018-08-16T22:32:44.796Z,22.30
2018-08-16T22:35:12.345Z,22.30
2018-08-16T22:37:39.933Z,22.20
2018-08-16T22:40:07.567Z,22.20
2018-08-16T22:42:35.215Z,22.10
2018-08-16T22:45:03.020Z,22.10
2018-08-16T22:47:30.807Z,22.00
2018-08-16T22:49:58.313Z,22.00
2018-08-16T22:52:25.922Z,22.00
2018-08-16T22:54:53.514Z,22.00
2018-08-16T22:57:21.155Z,21.90
2018-08-16T22:59:48.739Z,21.90
2018-08-16T23:02:16.311Z,21.80
2018-08-16T23:04:43.897Z,21.80
2018-08-16T23:07:11.451Z,21.80
2018-08-16T23:09:39.007Z,21.70
2018-08-16T23:12:06.636Z,21.70
2018-08-16T23:14:34.204Z,21.70
2018-08-16T23:17:01.784Z,21.60
2018-08-16T23:19:29.779Z,21.60
2018-08-16T23:21:57.521Z,21.60
2018-08-16T23:24:25.109Z,21.50
2018-08-16T23:26:52.639Z,21.50
2018-08-16T23:29:20.154Z,21.50
2018-08-16T23:31:47.697Z,21.40
2018-08-16T23:34:15.304Z,21.40
2018-08-16T23:36:42.897Z,21.40
2018-08-16T23:39:10.529Z,21.40
2018-08-16T23:41:38.128Z,21.40
2018-08-16T23:44:05.730Z,21.30
2018-08-16T23:46:33.284Z,21.30
2018-08-16T23:49:00.855Z,21.30
2018-08-16T23:51:28.400Z,21.30
2018-08-16T23:53:55.947Z,21.30
2018-08-16T23:56:23.538Z,21.20
2018-08-16T23:58:51.128Z,21.20
